Time;durP1;ratioP1;P1;durP2;ratioP2;P2;SDS_P1;SDS_P2;PMS_P1;PMS_P2;Temp;Humidity;BMP_temperature;BMP_pressure;BME280_temperature;BME280_humidity;BME280_pressure;Samples;Min_cycle;Max_cycle;Signal;HPM_P1;HPM_P2
2024/03/06 00:00:13;;;;;;;5.25;4.57;;;;;;;;;;1246457;23;20058;-74
2024/03/06 00:00:43;;;;;;;3.45;3.15;;;;;;;;;;1246716;23;20487;-74
2024/03/06 00:01:14;;;;;;;3.05;2.70;;;;;;;;;;1246714;23;20019;-74
2024/03/06 00:01:44;;;;;;;12.43;6.90;;;;;;;;;;1241195;23;20036;-74
2024/03/06 00:02:15;;;;;;;2.90;2.67;;;;;;;;;;1246574;23;20082;-74
2024/03/06 00:02:45;;;;;;;11.13;6.22;;;;;;;;;;1246755;23;20003;-74
2024/03/06 00:03:16;;;;;;;9.23;3.28;;;;;;;;;;1240742;23;20483;-74
2024/03/06 00:03:46;;;;;;;5.80;5.30;;;;;;;;;;1246856;23;20086;-74
2024/03/06 00:04:16;;;;;;;3.30;3.08;;;;;;;;;;1246798;23;20017;-74
2024/03/06 00:04:47;;;;;;;10.88;5.13;;;;;;;;;;1246916;23;20097;-74
2024/03/06 00:05:18;;;;;;;6.93;6.18;;;;;;;;;;1246555;23;20095;-74
2024/03/06 00:05:48;;;;;;;2.15;1.95;;;;;;;;;;1246987;23;20011;-74
2024/03/06 00:06:18;;;;;;;9.50;5.70;;;;;;;;;;1246649;23;20458;-74
2024/03/06 00:06:51;;;;;;;6.00;5.50;;;;;;;;;;1246677;23;20070;-74
2024/03/06 00:07:22;;;;;;;6.70;3.63;;;;;;;;;;1252725;23;20455;-74
2024/03/06 00:07:52;;;;;;;4.88;4.00;;;;;;;;;;1253209;23;20007;-74
2024/03/06 00:08:23;;;;;;;10.30;6.60;;;;;;;;;;1252966;23;20076;-74
2024/03/06 00:08:53;;;;;;;9.95;6.35;;;;;;;;;;1253009;23;20018;-74
2024/03/06 00:09:26;;;;;;;3.45;3.15;;;;;;;;;;1246601;23;20011;-74
2024/03/06 00:09:57;;;;;;;4.35;4.00;;;;;;;;;;1246795;23;20012;-74
2024/03/06 00:10:27;;;;;;;4.55;2.85;;;;;;;;;;1246892;23;20042;-74
2024/03/06 00:10:58;;;;;;;21.80;5.68;;;;;;;;;;1247225;23;20114;-74
2024/03/06 00:11:28;;;;;;;10.27;3.53;;;;;;;;;;1252634;23;20057;-74
2024/03/06 00:11:59;;;;;;;12.82;4.72;;;;;;;;;;1252624;23;20011;-74
2024/03/06 00:12:30;;;;;;;7.82;2.85;;;;;;;;;;1253097;23;20033;-74
2024/03/06 00:13:00;;;;;;;6.20;5.57;;;;;;;;;;1252868;23;20580;-74
2024/03/06 00:13:31;;;;;;;7.03;4.60;;;;;;;;;;1246917;23;20003;-74
2024/03/06 00:14:07;;;;;;;11.82;7.32;;;;;;;;;;1246696;23;20039;-74
2024/03/06 00:14:37;;;;;;;4.28;3.75;;;;;;;;;;1246740;23;20487;-74
2024/03/06 00:15:08;;;;;;;10.77;4.28;;;;;;;;;;1248013;23;20011;-74
2024/03/06 00:15:39;;;;;;;13.25;4.40;;;;;;;;;;1253106;23;20383;-74
2024/03/06 00:16:09;;;;;;;5.13;4.32;;;;;;;;;;1246716;23;20448;-74
2024/03/06 00:16:40;;;;;;;5.03;4.35;;;;;;;;;;1246653;23;20335;-74
2024/03/06 00:17:10;;;;;;;17.48;6.88;;;;;;;;;;1246641;23;20014;-74
2024/03/06 00:17:41;;;;;;;5.15;4.80;;;;;;;;;;1246967;23;20007;-74
2024/03/06 00:18:11;;;;;;;3.85;3.55;;;;;;;;;;1252747;23;20435;-74
2024/03/06 00:18:42;;;;;;;6.50;3.08;;;;;;;;;;1252646;23;20439;-74
2024/03/06 00:19:13;;;;;;;9.05;5.35;;;;;;;;;;1252875;23;20011;-74
2024/03/06 00:19:44;;;;;;;9.82;5.28;;;;;;;;;;1246790;23;20379;-74
2024/03/06 00:20:14;;;;;;;10.15;6.60;;;;;;;;;;1246636;23;20007;-74
2024/03/06 00:20:45;;;;;;;3.95;3.65;;;;;;;;;;1246749;23;20007;-74
2024/03/06 00:21:15;;;;;;;4.15;3.85;;;;;;;;;;1246681;23;20079;-74
2024/03/06 00:21:46;;;;;;;1.00;1.00;;;;;;;;;;1251928;23;20010;-74
2024/03/06 00:22:17;;;;;;;6.82;4.68;;;;;;;;;;1246621;23;20098;-74
2024/03/06 00:22:47;;;;;;;6.72;3.95;;;;;;;;;;1246770;23;20102;-74
2024/03/06 00:23:18;;;;;;;5.38;4.88;;;;;;;;;;1246494;23;20042;-74
2024/03/06 00:23:48;;;;;;;14.68;5.15;;;;;;;;;;1246938;23;20459;-74
2024/03/06 00:24:19;;;;;;;3.40;3.13;;;;;;;;;;1246698;23;20057;-74
2024/03/06 00:24:49;;;;;;;9.40;4.70;;;;;;;;;;1246853;23;20409;-74
2024/03/06 00:25:19;;;;;;;5.20;4.70;;;;;;;;;;1252794;23;20003;-74
2024/03/06 00:25:50;;;;;;;10.48;2.65;;;;;;;;;;1253227;23;20445;-74
2024/03/06 00:26:20;;;;;;;3.63;3.38;;;;;;;;;;1252847;23;20038;-74
2024/03/06 00:26:51;;;;;;;5.72;5.18;;;;;;;;;;1252892;23;20022;-74
2024/03/06 00:27:21;;;;;;;5.72;5.22;;;;;;;;;;1246563;23;20030;-74
2024/03/06 00:27:52;;;;;;;3.15;2.95;;;;;;;;;;1246980;23;20026;-74
2024/03/06 00:28:22;;;;;;;11.35;5.95;;;;;;;;;;1240761;23;20039;-74
2024/03/06 00:28:53;;;;;;;16.10;5.93;;;;;;;;;;1241024;23;20019;-74
2024/03/06 00:29:23;;;;;;;9.63;5.32;;;;;;;;;;1246651;23;20015;-74
2024/03/06 00:29:54;;;;;;;4.65;3.60;;;;;;;;;;1245649;23;20329;-74
2024/03/06 00:30:24;;;;;;;7.93;5.63;;;;;;;;;;1246521;23;20077;-74
2024/03/06 00:30:55;;;;;;;2.50;2.35;;;;;;;;;;1246661;23;20014;-74
2024/03/06 00:31:25;;;;;;;7.32;6.57;;;;;;;;;;1246549;23;20037;-74
2024/03/06 00:31:56;;;;;;;10.80;4.45;;;;;;;;;;1246989;23;20034;-74
2024/03/06 00:32:28;;;;;;;4.45;4.05;;;;;;;;;;1246775;23;20399;-74
2024/03/06 00:32:59;;;;;;;8.85;3.85;;;;;;;;;;1246443;23;20018;-74
2024/03/06 00:33:29;;;;;;;10.77;3.85;;;;;;;;;;1246905;23;20026;-74
2024/03/06 00:34:00;;;;;;;3.70;2.88;;;;;;;;;;1247135;23;20121;-74
2024/03/06 00:34:30;;;;;;;11.75;7.63;;;;;;;;;;1252660;23;20011;-74
2024/03/06 00:35:01;;;;;;;4.03;3.65;;;;;;;;;;1252811;23;20002;-74
2024/03/06 00:35:31;;;;;;;12.27;6.40;;;;;;;;;;1253099;23;20395;-74
2024/03/06 00:36:02;;;;;;;13.75;6.38;;;;;;;;;;1246431;23;20007;-74
2024/03/06 00:36:33;;;;;;;7.80;5.88;;;;;;;;;;1246819;23;20015;-74
2024/03/06 00:37:03;;;;;;;6.95;6.20;;;;;;;;;;1246420;23;20011;-74
2024/03/06 00:37:34;;;;;;;4.80;4.07;;;;;;;;;;1247204;23;20007;-74
2024/03/06 00:38:04;;;;;;;15.00;6.80;;;;;;;;;;1252871;23;20007;-74
2024/03/06 00:38:35;;;;;;;5.82;2.90;;;;;;;;;;1252987;23;20038;-74
2024/03/06 00:39:07;;;;;;;8.55;7.30;;;;;;;;;;1252741;23;20090;-74
2024/03/06 00:39:38;;;;;;;37.17;5.00;;;;;;;;;;1252804;23;20026;-74
2024/03/06 00:40:08;;;;;;;12.32;5.63;;;;;;;;;;1252838;23;20065;-74
2024/03/06 00:40:39;;;;;;;6.88;4.63;;;;;;;;;;1252863;23;20007;-74
2024/03/06 00:41:10;;;;;;;8.88;3.78;;;;;;;;;;1252776;23;20006;-74
2024/03/06 00:41:41;;;;;;;12.35;6.22;;;;;;;;;;1252986;23;20431;-74
2024/03/06 00:42:13;;;;;;;8.10;4.63;;;;;;;;;;1246715;23;20007;-74
2024/03/06 00:42:44;;;;;;;5.28;4.88;;;;;;;;;;1240906;23;20090;-74
2024/03/06 00:43:14;;;;;;;8.00;4.85;;;;;;;;;;1240698;23;20073;-74
2024/03/06 00:43:45;;;;;;;4.50;3.00;;;;;;;;;;1235653;23;20095;-74
2024/03/06 00:44:17;;;;;;;7.93;7.05;;;;;;;;;;1240899;23;20010;-74
2024/03/06 00:44:47;;;;;;;3.38;3.17;;;;;;;;;;1246671;23;20012;-74
2024/03/06 00:45:18;;;;;;;8.52;4.32;;;;;;;;;;1246788;23;19999;-74
2024/03/06 00:45:48;;;;;;;5.05;2.25;;;;;;;;;;1253017;23;20064;-74
2024/03/06 00:46:19;;;;;;;6.85;5.03;;;;;;;;;;1252910;23;20345;-74
2024/03/06 00:46:49;;;;;;;5.78;4.47;;;;;;;;;;1253163;23;20061;-74
2024/03/06 00:47:21;;;;;;;3.75;2.47;;;;;;;;;;1252371;23;20006;-74
2024/03/06 00:47:51;;;;;;;9.63;6.53;;;;;;;;;;1252302;23;20038;-75
2024/03/06 00:48:22;;;;;;;10.68;5.15;;;;;;;;;;1252736;23;20015;-74
2024/03/06 00:48:52;;;;;;;3.88;3.55;;;;;;;;;;1252859;23;20082;-74
2024/03/06 00:49:23;;;;;;;5.82;3.92;;;;;;;;;;1246437;23;20316;-74
2024/03/06 00:49:53;;;;;;;5.68;5.18;;;;;;;;;;1246638;23;20011;-74
2024/03/06 00:50:24;;;;;;;4.38;2.45;;;;;;;;;;1246339;23;19999;-74
2024/03/06 00:50:54;;;;;;;4.10;3.30;;;;;;;;;;1246634;23;20038;-74
2024/03/06 00:51:25;;;;;;;10.00;4.47;;;;;;;;;;1252728;23;20450;-74
2024/03/06 00:51:55;;;;;;;8.18;5.13;;;;;;;;;;1252777;23;20407;-74
2024/03/06 00:52:26;;;;;;;8.70;5.45;;;;;;;;;;1252802;23;19999;-74
2024/03/06 00:52:56;;;;;;;8.15;7.38;;;;;;;;;;1252886;23;20003;-74
2024/03/06 00:53:26;;;;;;;7.30;5.53;;;;;;;;;;1252952;23;20006;-74
2024/03/06 00:53:57;;;;;;;7.50;5.50;;;;;;;;;;1246338;23;20000;-74
2024/03/06 00:54:27;;;;;;;5.18;4.88;;;;;;;;;;1246774;23;20090;-74
2024/03/06 00:54:58;;;;;;;18.80;6.18;;;;;;;;;;1246372;23;20007;-74
2024/03/06 00:55:28;;;;;;;12.73;4.90;;;;;;;;;;1246973;23;20003;-74
2024/03/06 00:55:59;;;;;;;4.30;3.63;;;;;;;;;;1252928;23;20007;-74
2024/03/06 00:56:30;;;;;;;5.60;4.97;;;;;;;;;;1252913;23;20007;-74
2024/03/06 00:57:01;;;;;;;4.50;4.15;;;;;;;;;;1252543;23;20038;-74
2024/03/06 00:57:32;;;;;;;16.10;6.53;;;;;;;;;;1252855;23;20109;-74
2024/03/06 00:58:02;;;;;;;7.45;4.55;;;;;;;;;;1252322;23;20462;-74
2024/03/06 00:58:33;;;;;;;11.73;5.53;;;;;;;;;;1252633;23;20080;-74
2024/03/06 00:59:03;;;;;;;12.38;5.65;;;;;;;;;;1252154;23;20014;-74
2024/03/06 00:59:34;;;;;;;6.15;5.47;;;;;;;;;;1253030;23;20007;-74
2024/03/06 01:00:10;;;;;;;24.80;9.18;;;;;;;;;;1252773;23;20010;-74
2024/03/06 01:00:41;;;;;;;29.42;7.25;;;;;;;;;;1252949;23;20034;-74
2024/03/06 01:01:11;;;;;;;45.08;9.85;;;;;;;;;;1252676;23;20006;-74
2024/03/06 01:01:41;;;;;;;15.57;8.27;;;;;;;;;;1253071;23;20359;-74
2024/03/06 01:02:12;;;;;;;33.00;9.18;;;;;;;;;;1252970;23;20011;-74
2024/03/06 01:02:42;;;;;;;13.07;5.53;;;;;;;;;;1246417;23;19996;-74
2024/03/06 01:03:13;;;;;;;24.10;11.88;;;;;;;;;;1246290;23;20010;-74
2024/03/06 01:03:43;;;;;;;18.13;10.50;;;;;;;;;;1246812;23;20093;-74
2024/03/06 01:04:14;;;;;;;42.28;14.57;;;;;;;;;;1246683;23;20031;-74
2024/03/06 01:04:44;;;;;;;16.92;7.15;;;;;;;;;;1253050;23;20074;-74
2024/03/06 01:05:15;;;;;;;12.73;6.55;;;;;;;;;;1252165;23;20018;-74
2024/03/06 01:05:46;;;;;;;10.43;5.35;;;;;;;;;;1252890;23;20007;-74
2024/03/06 01:06:17;;;;;;;14.45;10.32;;;;;;;;;;1252689;23;20017;-74
2024/03/06 01:06:47;;;;;;;19.83;7.80;;;;;;;;;;1246320;23;20021;-74
2024/03/06 01:07:18;;;;;;;9.75;5.10;;;;;;;;;;1246281;23;20432;-74
2024/03/06 01:07:49;;;;;;;12.32;6.68;;;;;;;;;;1246780;23;20114;-74
2024/03/06 01:08:19;;;;;;;7.60;4.78;;;;;;;;;;1246655;23;20010;-73
2024/03/06 01:08:50;;;;;;;3.72;2.40;;;;;;;;;;1246569;23;19999;-73
2024/03/06 01:09:20;;;;;;;5.07;2.17;;;;;;;;;;1246375;23;20013;-74
2024/03/06 01:09:51;;;;;;;4.38;4.00;;;;;;;;;;1246918;23;20418;-74
2024/03/06 01:10:21;;;;;;;4.47;3.92;;;;;;;;;;1245068;23;20090;-74
2024/03/06 01:10:52;;;;;;;10.15;5.55;;;;;;;;;;1246434;23;20007;-74
2024/03/06 01:11:22;;;;;;;7.65;4.68;;;;;;;;;;1246104;23;20014;-74
2024/03/06 01:11:53;;;;;;;5.25;4.75;;;;;;;;;;1246816;23;20545;-74
2024/03/06 01:12:24;;;;;;;17.98;6.25;;;;;;;;;;1246094;23;20035;-74
2024/03/06 01:12:54;;;;;;;6.13;5.07;;;;;;;;;;1252447;23;20064;-74
2024/03/06 01:13:25;;;;;;;4.82;4.38;;;;;;;;;;1252460;23;20049;-74
2024/03/06 01:13:55;;;;;;;4.57;3.65;;;;;;;;;;1253066;23;20034;-74
2024/03/06 01:14:26;;;;;;;8.55;3.47;;;;;;;;;;1252906;23;20011;-74
2024/03/06 01:14:56;;;;;;;8.00;5.68;;;;;;;;;;1252604;23;20056;-74
2024/03/06 01:15:26;;;;;;;3.40;3.15;;;;;;;;;;1252355;23;20017;-74
2024/03/06 01:15:57;;;;;;;5.55;4.00;;;;;;;;;;1252655;23;20401;-73
2024/03/06 01:16:27;;;;;;;4.00;3.60;;;;;;;;;;1253104;23;20022;-74
2024/03/06 01:16:59;;;;;;;4.88;3.83;;;;;;;;;;1252422;23;20011;-74
2024/03/06 01:17:29;;;;;;;13.45;7.68;;;;;;;;;;1252713;23;20010;-74
2024/03/06 01:18:00;;;;;;;3.25;2.95;;;;;;;;;;1252557;23;20396;-74
2024/03/06 01:18:30;;;;;;;11.85;3.70;;;;;;;;;;1246542;23;20069;-74
2024/03/06 01:19:00;;;;;;;6.65;6.03;;;;;;;;;;1246205;23;20018;-74
2024/03/06 01:19:31;;;;;;;13.50;6.65;;;;;;;;;;1246536;23;20090;-74
2024/03/06 01:20:03;;;;;;;7.13;5.63;;;;;;;;;;1246643;23;20442;-74
2024/03/06 01:20:33;;;;;;;5.38;4.78;;;;;;;;;;1252487;23;20082;-74
2024/03/06 01:21:04;;;;;;;2.25;2.05;;;;;;;;;;1251980;23;20011;-74
2024/03/06 01:21:35;;;;;;;6.97;4.03;;;;;;;;;;1246112;23;20011;-74
2024/03/06 01:22:05;;;;;;;6.20;4.13;;;;;;;;;;1245784;23;20070;-74
2024/03/06 01:22:36;;;;;;;4.55;4.15;;;;;;;;;;1245848;23;20515;-74
2024/03/06 01:23:06;;;;;;;9.60;4.22;;;;;;;;;;1245817;23;20035;-74
2024/03/06 01:23:37;;;;;;;4.55;4.15;;;;;;;;;;1246369;23;20007;-74
2024/03/06 01:24:07;;;;;;;5.63;5.07;;;;;;;;;;1252188;23;20006;-74
2024/03/06 01:24:38;;;;;;;5.85;4.20;;;;;;;;;;1252335;23;20324;-74
2024/03/06 01:25:08;;;;;;;10.55;7.00;;;;;;;;;;1251537;23;20030;-74
2024/03/06 01:25:39;;;;;;;17.35;9.35;;;;;;;;;;1251927;23;20007;-74
2024/03/06 01:26:09;;;;;;;28.75;7.50;;;;;;;;;;1252010;23;20011;-74
2024/03/06 01:26:41;;;;;;;9.90;6.78;;;;;;;;;;1251955;23;20085;-74
2024/03/06 01:27:11;;;;;;;4.10;3.72;;;;;;;;;;1251758;23;20385;-74
2024/03/06 01:27:42;;;;;;;12.07;6.00;;;;;;;;;;1252062;23;20419;-74
2024/03/06 01:28:12;;;;;;;6.45;4.85;;;;;;;;;;1252324;23;20331;-74
2024/03/06 01:28:43;;;;;;;12.98;6.65;;;;;;;;;;1252459;23;20090;-74
2024/03/06 01:29:13;;;;;;;5.25;4.70;;;;;;;;;;1251408;23;20053;-74
2024/03/06 01:29:44;;;;;;;9.95;2.55;;;;;;;;;;1252273;23;20010;-74
2024/03/06 01:30:14;;;;;;;23.52;6.97;;;;;;;;;;1251208;23;20510;-74
2024/03/06 01:30:45;;;;;;;7.60;5.63;;;;;;;;;;1245695;23;20066;-75
2024/03/06 01:31:15;;;;;;;9.18;4.22;;;;;;;;;;1245326;23;20018;-74
2024/03/06 01:31:46;;;;;;;21.02;5.07;;;;;;;;;;1246661;23;20023;-74
2024/03/06 01:32:17;;;;;;;6.65;4.80;;;;;;;;;;1240317;23;20093;-74
2024/03/06 01:32:47;;;;;;;7.35;6.38;;;;;;;;;;1245701;23;20065;-74
2024/03/06 01:33:18;;;;;;;19.65;5.28;;;;;;;;;;1244711;23;20011;-74
2024/03/06 01:33:48;;;;;;;5.38;4.90;;;;;;;;;;1244586;23;20039;-74
2024/03/06 01:34:19;;;;;;;8.40;4.28;;;;;;;;;;1245507;23;20030;-74
2024/03/06 01:34:50;;;;;;;13.00;5.80;;;;;;;;;;1248604;23;20010;-74
2024/03/06 01:35:20;;;;;;;9.30;4.63;;;;;;;;;;1247428;23;20011;-74
2024/03/06 01:35:51;;;;;;;7.47;6.32;;;;;;;;;;1249307;23;20005;-74
2024/03/06 01:36:21;;;;;;;12.30;4.85;;;;;;;;;;1248667;23;20020;-75
2024/03/06 01:36:52;;;;;;;23.35;7.43;;;;;;;;;;1249333;23;20007;-74
2024/03/06 01:37:22;;;;;;;11.15;5.97;;;;;;;;;;1250451;23;20061;-74
2024/03/06 01:37:53;;;;;;;6.50;5.90;;;;;;;;;;1250296;23;20009;-76
2024/03/06 01:38:23;;;;;;;6.90;5.43;;;;;;;;;;1245677;23;20473;-75
2024/03/06 01:38:54;;;;;;;25.10;10.32;;;;;;;;;;1246041;23;19999;-75
2024/03/06 01:39:25;;;;;;;3.92;3.53;;;;;;;;;;1251157;23;20007;-76
2024/03/06 01:39:55;;;;;;;6.75;5.18;;;;;;;;;;1245154;23;20018;-74
2024/03/06 01:40:29;;;;;;;7.80;4.55;;;;;;;;;;1245522;23;20336;-76
2024/03/06 01:40:59;;;;;;;6.95;5.10;;;;;;;;;;1244513;23;20479;-76
2024/03/06 01:41:30;;;;;;;11.25;5.90;;;;;;;;;;1239705;23;20091;-76
2024/03/06 01:42:01;;;;;;;10.80;5.47;;;;;;;;;;1239781;23;20034;-76
2024/03/06 01:42:31;;;;;;;15.55;7.70;;;;;;;;;;1246279;23;20015;-75
2024/03/06 01:43:02;;;;;;;4.13;3.83;;;;;;;;;;1239914;23;20087;-75
2024/03/06 01:43:37;;;;;;;10.15;6.30;;;;;;;;;;1234308;24;20098;-77
2024/03/06 01:44:07;;;;;;;11.85;6.50;;;;;;;;;;1234214;24;20019;-74
2024/03/06 01:44:37;;;;;;;9.00;7.03;;;;;;;;;;1235249;23;20012;-74
2024/03/06 01:45:08;;;;;;;10.10;6.00;;;;;;;;;;1241326;23;20012;-75
2024/03/06 01:45:39;;;;;;;5.40;3.30;;;;;;;;;;1245968;23;19995;-76
2024/03/06 01:46:10;;;;;;;15.02;9.88;;;;;;;;;;1246100;23;20333;-77
2024/03/06 01:46:41;;;;;;;6.70;6.10;;;;;;;;;;1240209;23;20004;-75
2024/03/06 01:47:11;;;;;;;6.60;4.70;;;;;;;;;;1240059;23;20008;-74
2024/03/06 01:47:42;;;;;;;14.75;8.20;;;;;;;;;;1245518;23;20003;-74
2024/03/06 01:48:12;;;;;;;17.77;8.15;;;;;;;;;;1245711;23;20434;-76
2024/03/06 01:48:43;;;;;;;8.45;7.15;;;;;;;;;;1245570;23;20033;-75
2024/03/06 01:49:14;;;;;;;19.92;7.65;;;;;;;;;;1245346;23;20045;-76
2024/03/06 01:49:46;;;;;;;15.27;8.48;;;;;;;;;;1244441;23;20007;-76
2024/03/06 01:50:16;;;;;;;13.90;7.80;;;;;;;;;;1245611;23;20188;-75
2024/03/06 01:50:47;;;;;;;19.85;7.45;;;;;;;;;;1250786;23;20003;-75
2024/03/06 01:51:17;;;;;;;9.20;8.35;;;;;;;;;;1248103;23;20608;-75
2024/03/06 01:51:51;;;;;;;9.02;6.30;;;;;;;;;;1244289;23;20041;-76
2024/03/06 01:52:22;;;;;;;9.82;6.53;;;;;;;;;;1239692;23;20785;-76
2024/03/06 01:52:53;;;;;;;10.65;6.22;;;;;;;;;;1244664;23;20451;-76
2024/03/06 01:53:26;;;;;;;10.13;5.78;;;;;;;;;;1244148;23;20038;-76
2024/03/06 01:53:58;;;;;;;6.88;6.25;;;;;;;;;;1246499;23;20011;-73
2024/03/06 01:54:30;;;;;;;16.02;7.28;;;;;;;;;;1250273;23;20011;-75
2024/03/06 01:55:01;;;;;;;10.07;8.02;;;;;;;;;;1249886;23;20011;-76
2024/03/06 01:55:32;;;;;;;23.52;5.75;;;;;;;;;;1251044;23;20014;-76
2024/03/06 01:56:04;;;;;;;10.52;7.32;;;;;;;;;;1248594;23;19999;-75
2024/03/06 01:56:36;;;;;;;6.97;5.20;;;;;;;;;;1250915;23;20017;-76
2024/03/06 01:57:08;;;;;;;9.10;3.63;;;;;;;;;;1250362;23;20447;-76
2024/03/06 01:57:40;;;;;;;12.60;6.75;;;;;;;;;;1244962;23;20034;-75
2024/03/06 01:58:10;;;;;;;10.02;7.32;;;;;;;;;;1244602;23;20367;-76
2024/03/06 01:58:41;;;;;;;9.70;2.97;;;;;;;;;;1245677;23;20003;-75
2024/03/06 01:59:13;;;;;;;3.83;3.53;;;;;;;;;;1245352;23;20138;-77
2024/03/06 01:59:43;;;;;;;3.45;3.15;;;;;;;;;;1238387;23;20503;-75
2024/03/06 02:00:15;;;;;;;14.95;5.95;;;;;;;;;;1238731;23;20015;-76
2024/03/06 02:00:46;;;;;;;11.75;5.43;;;;;;;;;;1238563;23;20007;-76
2024/03/06 02:01:17;;;;;;;15.35;7.88;;;;;;;;;;1239115;23;20047;-75
2024/03/06 02:01:48;;;;;;;8.00;6.00;;;;;;;;;;1244792;23;20541;-76
2024/03/06 02:02:19;;;;;;;5.72;4.43;;;;;;;;;;1245015;23;20007;-75
2024/03/06 02:02:50;;;;;;;13.85;7.70;;;;;;;;;;1245481;23;20089;-76
2024/03/06 02:03:21;;;;;;;9.50;4.82;;;;;;;;;;1245250;23;20011;-74
2024/03/06 02:03:52;;;;;;;12.38;7.10;;;;;;;;;;1244282;23;20007;-75
2024/03/06 02:04:23;;;;;;;15.23;5.93;;;;;;;;;;1245812;23;20101;-76
2024/03/06 02:04:54;;;;;;;12.57;6.15;;;;;;;;;;1251501;23;20081;-76
2024/03/06 02:05:26;;;;;;;14.55;9.65;;;;;;;;;;1250369;23;20116;-76
2024/03/06 02:05:58;;;;;;;23.35;9.30;;;;;;;;;;1242738;23;20023;-76
2024/03/06 02:06:29;;;;;;;7.40;4.65;;;;;;;;;;1244136;23;20015;-75
2024/03/06 02:07:00;;;;;;;14.23;5.25;;;;;;;;;;1245252;23;20066;-77
2024/03/06 02:07:32;;;;;;;10.65;5.57;;;;;;;;;;1245932;23;20029;-75
2024/03/06 02:08:03;;;;;;;11.52;4.90;;;;;;;;;;1244911;23;20000;-74
2024/03/06 02:08:33;;;;;;;10.40;7.00;;;;;;;;;;1244780;23;20073;-74
2024/03/06 02:09:04;;;;;;;10.63;5.63;;;;;;;;;;1244350;23;20041;-75
2024/03/06 02:09:34;;;;;;;7.47;6.68;;;;;;;;;;1245571;23;20054;-76
2024/03/06 02:10:06;;;;;;;7.65;4.65;;;;;;;;;;1242743;23;20011;-75
2024/03/06 02:10:37;;;;;;;15.25;4.60;;;;;;;;;;1243375;23;20003;-77
2024/03/06 02:11:07;;;;;;;11.48;4.43;;;;;;;;;;1244878;23;20089;-76
2024/03/06 02:11:38;;;;;;;27.80;7.00;;;;;;;;;;1245065;23;20011;-75
2024/03/06 02:12:08;;;;;;;8.70;4.85;;;;;;;;;;1235889;23;20586;-75
2024/03/06 02:12:39;;;;;;;13.68;4.45;;;;;;;;;;1236545;23;20011;-75
2024/03/06 02:13:10;;;;;;;7.07;4.80;;;;;;;;;;1232787;23;20079;-75
2024/03/06 02:13:41;;;;;;;8.40;5.80;;;;;;;;;;1230713;23;20487;-74
2024/03/06 02:14:12;;;;;;;3.28;3.00;;;;;;;;;;1237144;23;20127;-75
2024/03/06 02:14:46;;;;;;;8.15;6.43;;;;;;;;;;1243714;23;20041;-75
2024/03/06 02:15:17;;;;;;;11.23;5.05;;;;;;;;;;1249999;23;20458;-75
2024/03/06 02:15:48;;;;;;;10.02;4.68;;;;;;;;;;1249836;23;20007;-75
2024/03/06 02:16:19;;;;;;;10.57;5.93;;;;;;;;;;1249783;23;20011;-74
2024/03/06 02:16:49;;;;;;;12.38;8.50;;;;;;;;;;1250979;23;20014;-76
2024/03/06 02:17:21;;;;;;;10.68;7.78;;;;;;;;;;1251861;23;20098;-76
2024/03/06 02:17:53;;;;;;;5.00;3.90;;;;;;;;;;1251690;23;20065;-76
2024/03/06 02:18:23;;;;;;;4.57;4.10;;;;;;;;;;1251053;23;20015;-75
2024/03/06 02:18:54;;;;;;;9.02;4.68;;;;;;;;;;1251324;23;20431;-76
2024/03/06 02:19:36;;;;;;;10.10;6.50;;;;;;;;;;1244384;23;20008;-75
2024/03/06 02:20:12;;;;;;;22.60;3.95;;;;;;;;;;1244365;23;20072;-76
2024/03/06 02:20:42;;;;;;;12.35;5.63;;;;;;;;;;1244815;23;20008;-76
2024/03/06 02:21:13;;;;;;;3.97;3.67;;;;;;;;;;1244971;23;20012;-76
2024/03/06 02:21:43;;;;;;;12.60;7.35;;;;;;;;;;1238564;23;20019;-76
2024/03/06 02:22:14;;;;;;;8.93;6.80;;;;;;;;;;1243764;23;20085;-76
2024/03/06 02:22:44;;;;;;;3.67;2.50;;;;;;;;;;1238861;23;20509;-76
2024/03/06 02:23:17;;;;;;;3.83;3.22;;;;;;;;;;1239738;23;20082;-77
2024/03/06 02:23:48;;;;;;;4.40;3.75;;;;;;;;;;1245882;23;20061;-75
2024/03/06 02:24:19;;;;;;;6.68;3.25;;;;;;;;;;1244173;23;20040;-76
2024/03/06 02:24:49;;;;;;;10.18;5.78;;;;;;;;;;1239562;23;20019;-75
2024/03/06 02:25:20;;;;;;;3.25;2.92;;;;;;;;;;1238809;23;20440;-75
2024/03/06 02:25:50;;;;;;;16.98;4.07;;;;;;;;;;1239330;23;20034;-75
2024/03/06 02:26:21;;;;;;;11.93;7.10;;;;;;;;;;1245068;23;20057;-76
2024/03/06 02:26:52;;;;;;;10.77;6.10;;;;;;;;;;1245846;23;20007;-76
2024/03/06 02:27:22;;;;;;;7.05;3.72;;;;;;;;;;1244936;23;20529;-76
2024/03/06 02:27:53;;;;;;;4.47;4.10;;;;;;;;;;1245336;23;20013;-77
2024/03/06 02:28:24;;;;;;;4.40;3.28;;;;;;;;;;1245217;23;20045;-76
2024/03/06 02:28:56;;;;;;;7.20;6.57;;;;;;;;;;1251452;23;20007;-77
2024/03/06 02:29:27;;;;;;;14.40;4.70;;;;;;;;;;1250765;23;20080;-75
2024/03/06 02:29:58;;;;;;;11.75;6.53;;;;;;;;;;1244602;23;20459;-76
2024/03/06 02:30:35;;;;;;;8.25;5.57;;;;;;;;;;1239204;23;20015;-76
2024/03/06 02:31:06;;;;;;;7.10;4.13;;;;;;;;;;1239177;23;20007;-77
2024/03/06 02:31:39;;;;;;;8.57;5.82;;;;;;;;;;1239529;23;20012;-76
2024/03/06 02:32:13;;;;;;;6.85;5.18;;;;;;;;;;1239866;23;20023;-76
2024/03/06 02:32:44;;;;;;;4.13;3.63;;;;;;;;;;1244988;23;20035;-76
2024/03/06 02:33:15;;;;;;;9.88;5.28;;;;;;;;;;1244901;23;20011;-76
2024/03/06 02:33:49;;;;;;;4.63;4.25;;;;;;;;;;1246071;23;20443;-76
2024/03/06 02:34:20;;;;;;;2.88;2.38;;;;;;;;;;1250972;23;20085;-75
2024/03/06 02:34:51;;;;;;;4.03;2.92;;;;;;;;;;1250767;23;20010;-75
2024/03/06 02:35:23;;;;;;;8.98;5.43;;;;;;;;;;1250545;23;20011;-75
2024/03/06 02:35:54;;;;;;;7.25;3.60;;;;;;;;;;1251684;23;20007;-75
2024/03/06 02:36:25;;;;;;;3.33;3.00;;;;;;;;;;1244096;23;20375;-77
2024/03/06 02:36:56;;;;;;;9.82;4.05;;;;;;;;;;1244672;23;20503;-76
2024/03/06 02:37:27;;;;;;;4.35;3.95;;;;;;;;;;1238790;23;20008;-75
2024/03/06 02:37:59;;;;;;;8.82;5.78;;;;;;;;;;1238884;23;20003;-77
2024/03/06 02:38:30;;;;;;;6.63;4.47;;;;;;;;;;1239689;23;20480;-76
2024/03/06 02:39:01;;;;;;;9.65;8.73;;;;;;;;;;1245323;23;20035;-75
2024/03/06 02:39:33;;;;;;;17.25;5.88;;;;;;;;;;1244109;23;20008;-76
2024/03/06 02:40:07;;;;;;;7.60;5.63;;;;;;;;;;1243442;23;20063;-76
2024/03/06 02:40:38;;;;;;;4.35;3.00;;;;;;;;;;1246783;23;20397;-75
2024/03/06 02:41:18;;;;;;;5.00;4.47;;;;;;;;;;1243830;23;20413;-78
2024/03/06 02:41:51;;;;;;;6.72;6.05;;;;;;;;;;1237655;23;20004;-75
2024/03/06 02:42:22;;;;;;;3.42;3.17;;;;;;;;;;1237486;23;20118;-76
2024/03/06 02:42:58;;;;;;;13.65;7.07;;;;;;;;;;1265163;23;20445;-76
2024/03/06 02:43:34;;;;;;;3.30;3.00;;;;;;;;;;1266754;23;20038;-75
2024/03/06 02:44:04;;;;;;;10.20;5.05;;;;;;;;;;1269589;23;20493;-75
2024/03/06 02:44:36;;;;;;;2.75;2.55;;;;;;;;;;1258254;23;20009;-75
2024/03/06 02:45:08;;;;;;;15.80;7.05;;;;;;;;;;1244271;23;20518;-75
2024/03/06 02:45:39;;;;;;;4.97;2.92;;;;;;;;;;1250464;23;20011;-76
2024/03/06 02:46:10;;;;;;;7.93;7.15;;;;;;;;;;1248488;23;20430;-76
2024/03/06 02:46:41;;;;;;;6.18;5.40;;;;;;;;;;1242647;23;20498;-78
2024/03/06 02:47:11;;;;;;;5.85;3.65;;;;;;;;;;1240863;23;20027;-76
2024/03/06 02:47:42;;;;;;;9.82;4.55;;;;;;;;;;1242405;23;20017;-76
2024/03/06 02:48:12;;;;;;;14.25;5.32;;;;;;;;;;1244551;23;20370;-75
2024/03/06 02:48:43;;;;;;;10.60;5.20;;;;;;;;;;1244067;23;20000;-74
2024/03/06 02:49:15;;;;;;;10.88;4.70;;;;;;;;;;1243813;23;20530;-75
2024/03/06 02:49:45;;;;;;;2.67;2.45;;;;;;;;;;1243554;23;20743;-76
2024/03/06 02:50:16;;;;;;;10.68;4.00;;;;;;;;;;1241385;23;20094;-76
2024/03/06 02:50:46;;;;;;;4.45;4.10;;;;;;;;;;1243706;23;20007;-74
2024/03/06 02:51:20;;;;;;;7.88;6.05;;;;;;;;;;1244648;23;20066;-76
2024/03/06 02:51:51;;;;;;;13.70;6.28;;;;;;;;;;1244925;23;20312;-76
2024/03/06 02:52:22;;;;;;;21.73;11.75;;;;;;;;;;1243839;23;20007;-76
2024/03/06 02:52:53;;;;;;;18.20;12.82;;;;;;;;;;1244582;23;20084;-75
2024/03/06 02:53:25;;;;;;;7.05;6.40;;;;;;;;;;1243171;23;20034;-76
2024/03/06 02:53:55;;;;;;;9.93;5.97;;;;;;;;;;1244767;23;20008;-77
2024/03/06 02:54:26;;;;;;;12.02;7.25;;;;;;;;;;1247299;23;20021;-76
2024/03/06 02:54:57;;;;;;;8.02;6.32;;;;;;;;;;1249755;23;20057;-76
2024/03/06 02:55:30;;;;;;;7.50;6.80;;;;;;;;;;1250500;23;20379;-77
2024/03/06 02:56:01;;;;;;;21.65;5.70;;;;;;;;;;1250206;23;20078;-77
2024/03/06 02:56:32;;;;;;;4.53;3.88;;;;;;;;;;1250892;23;20419;-76
2024/03/06 02:57:02;;;;;;;12.18;7.85;;;;;;;;;;1249737;23;20065;-75
2024/03/06 02:57:33;;;;;;;13.93;8.68;;;;;;;;;;1248312;23;20116;-77
2024/03/06 02:58:04;;;;;;;16.38;6.13;;;;;;;;;;1249666;23;20015;-76
2024/03/06 02:58:35;;;;;;;6.03;5.03;;;;;;;;;;1243276;23;20007;-77
2024/03/06 02:59:05;;;;;;;12.32;7.28;;;;;;;;;;1244033;23;20352;-75
2024/03/06 02:59:36;;;;;;;11.98;7.63;;;;;;;;;;1244245;23;19999;-76
2024/03/06 03:00:12;;;;;;;6.68;5.75;;;;;;;;;;1242685;23;20086;-77
2024/03/06 03:00:43;;;;;;;9.02;6.40;;;;;;;;;;1245025;23;20015;-75
2024/03/06 03:01:14;;;;;;;14.90;6.68;;;;;;;;;;1249751;23;20063;-76
2024/03/06 03:01:45;;;;;;;22.58;8.95;;;;;;;;;;1244433;23;20007;-75
2024/03/06 03:02:15;;;;;;;30.30;13.02;;;;;;;;;;1244848;23;20126;-77
2024/03/06 03:02:46;;;;;;;13.52;8.60;;;;;;;;;;1244567;23;20013;-75
2024/03/06 03:03:18;;;;;;;11.90;7.38;;;;;;;;;;1244838;23;20007;-76
2024/03/06 03:03:49;;;;;;;5.50;5.03;;;;;;;;;;1244025;23;20399;-76
2024/03/06 03:04:19;;;;;;;7.65;6.47;;;;;;;;;;1243448;23;20093;-74
2024/03/06 03:04:52;;;;;;;36.97;11.10;;;;;;;;;;1238350;23;20019;-77